Latest Weather Observations for Hay Airport

IDN60801

Issued at 9:03 am EDT Thursday 11 February 2016 (issued every 30 minutes, with the page automatically refreshed every 10 minutes)

About weather observations | Map of weather stations | Latest weather observations for NSW | Other Formats
Station Details ID: 075019 Name: HAY AIRPORT AWS Lat: -34.54 Lon: 144.83 Height: 92.0 m
Data from the previous 72 hours. | See also: Recent months at Hay Airport
Date/Time
EDT
Temp
°C
App
Temp
°C
Dew
Point
Rel
Hum
%
Delta-T
°C
Wind Press
QNH
hPa
Press
MSL
hPa
Rain
since 9 am
mm
Dir
 
Spd
km/h
Gust
km/h
Spd
kts
Gust
kts
11/09:00am 23.2 19.4 9.2 41 7.6 SSE 19 26 10 14 1013.7 1013.2 0.0
11/08:30am 22.0 19.1 9.5 45 6.7 SSE 15 20 8 11 1013.4 1012.9 0.0
11/08:00am 19.6 17.2 8.6 49 5.8 S 11 15 6 8 1013.2 1012.7 0.0
11/07:30am 16.2 15.2 7.2 55 4.5 S 2 7 1 4 1012.9 1012.4 0.0
11/07:00am 15.4 13.8 6.4 55 4.4 S 4 7 2 4 1012.5 1012.0 0.0
11/06:30am 16.2 14.2 7.2 55 4.5 S 7 7 4 4 1012.2 1011.7 0.0
11/06:00am 17.3 14.7 7.9 54 4.8 S 11 15 6 8 1011.8 1011.3 0.0
11/05:30am 16.9 14.4 6.4 50 5.2 S 9 11 5 6 1011.7 1011.2 0.0
11/05:00am 18.3 15.7 7.7 50 5.4 SSE 11 13 6 7 1011.4 1010.9 0.0
11/04:30am 18.2 15.6 6.1 45 6.0 SE 9 11 5 6 1011.1 1010.7 0.0
11/04:00am 19.3 16.4 6.4 43 6.5 SSE 11 13 6 7 1010.9 1010.5 0.0
11/03:30am 19.8 17.1 5.8 40 7.0 SE 9 13 5 7 1010.9 1010.5 0.0
11/03:00am 20.6 17.4 5.0 36 7.7 SE 11 11 6 6 1011.0 1010.6 0.0
11/02:30am 21.9 18.7 4.9 33 8.4 SSE 11 15 6 8 1011.3 1010.8 0.0
11/02:00am 23.4 19.4 4.9 30 9.3 SE 15 20 8 11 1011.3 1010.8 0.0
11/01:30am 24.1 19.8 3.4 26 10.1 SSE 15 20 8 11 1011.5 1011.0 0.0
11/01:00am 24.1 20.0 2.3 24 10.5 SSE 13 17 7 9 1011.5 1011.0 0.0
11/12:30am 23.4 19.5 1.1 23 10.4 SSE 11 13 6 7 1011.6 1011.1 0.0
11/12:00am 24.4 20.1 1.3 22 10.9 S 13 15 7 8 1011.6 1011.1 0.0
 
Date/Time
EDT
Temp
°C
App
Temp
°C
Dew
Point
Rel
Hum
%
Delta-T
°C
Wind Press
QNH
hPa
Press
MSL
hPa
Rain
since 9 am
mm
Dir
 
Spd
km/h
Gust
km/h
Spd
kts
Gust
kts
10/11:30pm 24.7 20.0 0.9 21 11.2 S 15 17 8 9 1011.6 1011.1 0.0
10/11:00pm 25.2 20.1 0.7 20 11.5 SSW 17 20 9 11 1011.7 1011.2 0.0
10/10:30pm 26.7 21.7 1.2 19 12.2 S 17 19 9 10 1011.7 1011.2 0.0
10/10:00pm 26.6 22.7 1.1 19 12.2 S 11 15 6 8 1011.5 1011.0 0.0
10/09:30pm 27.4 23.1 1.0 18 12.6 SSW 13 15 7 8 1011.3 1010.8 0.0
10/09:00pm 29.6 24.8 0.2 15 14.1 S 15 17 8 9 1011.0 1010.6 0.0
10/08:30pm 31.0 26.2 0.4 14 14.9 SSW 15 17 8 9 1011.0 1010.6 0.0
10/08:00pm 32.9 27.1 -0.2 12 16.1 SSW 20 26 11 14 1010.8 1010.4 0.0
10/07:30pm 33.6 27.5 0.3 12 16.4 SSW 22 32 12 17 1010.5 1010.1 0.0
10/07:00pm 34.6 27.5 1.1 12 16.9 SW 28 39 15 21 1010.1 1009.7 0.0
10/06:30pm 35.7 28.7 1.9 12 17.3 SW 28 39 15 21 1009.8 1009.4 0.0
10/06:00pm 36.7 29.6 1.5 11 18.1 SW 28 39 15 21 1009.7 1009.3 0.0
10/05:55pm 37.0 29.8 0.4 10 18.5 SW 28 52 15 28 1009.6 1009.2 0.0
10/05:30pm 36.6 29.3 0.1 10 18.3 SW 28 37 15 20 1009.7 1009.3 0.0
10/05:00pm 37.2 30.6 1.8 11 18.3 WSW 26 35 14 19 1009.6 1009.2 0.0
10/04:30pm 37.8 30.3 1.0 10 18.9 SW 30 48 16 26 1009.7 1009.3 0.0
10/04:27pm 38.0 30.9 1.1 10 19.0 SW 28 48 15 26 1009.7 1009.3 0.0
10/04:00pm 37.4 30.6 0.7 10 18.7 SW 26 43 14 23 1010.0 1009.6 0.0
10/03:30pm 37.1 31.0 0.4 10 18.5 WSW 22 43 12 23 1010.3 1009.9 0.0
10/03:00pm 37.0 30.5 0.4 10 18.5 SW 24 43 13 23 1010.6 1010.2 0.0
10/02:30pm 37.3 31.4 -0.9 9 18.9 SW 20 33 11 18 1010.9 1010.5 0.0
10/02:00pm 38.1 32.8 -0.3 9 19.3 WNW 17 28 9 15 1011.1 1010.7 0.0
10/01:30pm 37.9 32.1 -0.4 9 19.2 WSW 20 33 11 18 1011.5 1011.0 0.0
10/01:00pm 37.1 31.7 -1.0 9 18.8 W 17 35 9 19 1011.8 1011.3 0.0
10/12:30pm 36.4 31.4 -1.5 9 18.5 W 15 28 8 15 1012.2 1011.7 0.0
10/12:00pm 35.4 30.3 -2.3 9 18.1 WNW 15 28 8 15 1012.7 1012.2 0.0
10/11:30am 35.4 30.5 -0.8 10 17.8 W 15 20 8 11 1013.1 1012.6 0.0
10/11:00am 34.4 30.7 -0.3 11 17.1 NW 9 20 5 11 1013.3 1012.8 0.0
10/10:30am 33.6 30.3 -0.9 11 16.7 W 6 11 3 6 1013.5 1013.0 0.0
10/10:00am 32.6 30.2 -0.5 12 16.0 NNW 2 7 1 4 1013.5 1013.0 0.0
10/09:30am 30.6 28.8 1.0 15 14.5 CALM 0 0 0 0 1013.7 1013.2 0.0
10/09:00am 28.7 26.9 1.3 17 13.3 CALM 0 0 0 0 1013.7 1013.2 0.0
10/08:30am 26.5 23.8 2.4 21 11.8 ENE 6 7 3 4 1013.5 1013.0 0.0
10/08:00am 22.5 21.3 4.5 31 8.9 CALM 0 0 0 0 1013.4 1012.9 0.0
10/07:30am 18.9 17.8 5.0 40 6.8 CALM 0 0 0 0 1013.3 1012.8 0.0
10/07:00am 18.0 16.7 3.9 39 6.7 CALM 0 0 0 0 1013.1 1012.6 0.0
10/06:30am 17.8 16.1 4.0 40 6.5 WNW 2 7 1 4 1012.9 1012.4 0.0
10/06:00am 17.4 14.6 3.3 39 6.5 NW 7 9 4 5 1012.7 1012.2 0.0
10/05:30am 17.5 14.9 3.0 38 6.7 WSW 6 7 3 4 1012.6 1012.1 0.0
10/05:00am 17.8 16.3 2.9 37 6.9 CALM 0 0 0 0 1012.4 1011.9 0.0
10/04:30am 18.5 17.0 3.2 36 7.2 CALM 0 0 0 0 1012.4 1011.9 0.0
10/04:00am 18.4 16.8 2.3 34 7.4 CALM 0 0 0 0 1012.6 1012.1 0.0
10/03:30am 20.0 17.6 2.4 31 8.2 NE 4 7 2 4 1012.6 1012.1 0.0
10/03:00am 18.7 16.4 2.5 34 7.5 ENE 4 13 2 7 1012.4 1011.9 0.0
10/02:30am 19.9 18.2 1.8 30 8.3 CALM 0 0 0 0 1012.6 1012.1 0.0
10/02:00am 20.8 19.1 2.1 29 8.7 CALM 0 0 0 0 1012.9 1012.4 0.0
10/01:30am 20.7 17.7 2.0 29 8.7 SW 7 9 4 5 1013.2 1012.7 0.0
10/01:00am 21.8 18.8 2.0 27 9.3 SSW 7 9 4 5 1013.4 1012.9 0.0
10/12:30am 22.1 19.5 1.2 25 9.7 SSE 4 7 2 4 1013.6 1013.1 0.0
10/12:00am 23.3 20.3 1.0 23 10.4 SSW 6 9 3 5 1013.8 1013.3 0.0
 
Date/Time
EDT
Temp
°C
App
Temp
°C
Dew
Point
Rel
Hum
%
Delta-T
°C
Wind Press
QNH
hPa
Press
MSL
hPa
Rain
since 9 am
mm
Dir
 
Spd
km/h
Gust
km/h
Spd
kts
Gust
kts
09/11:30pm 24.9 20.5 0.4 20 11.4 SSW 13 15 7 8 1014.0 1013.5 0.0
09/11:00pm 25.8 21.0 0.5 19 11.9 SSW 15 17 8 9 1014.2 1013.7 0.0
09/10:30pm 26.5 21.4 1.0 19 12.1 SSW 17 19 9 10 1014.3 1013.8 0.0
09/10:00pm 26.5 22.3 1.7 20 11.9 SSW 13 15 7 8 1014.3 1013.8 0.0
09/09:30pm 27.7 23.0 1.2 18 12.8 SSW 15 17 8 9 1014.0 1013.5 0.0
09/09:00pm 29.4 24.8 1.8 17 13.6 SSW 15 15 8 8 1013.9 1013.4 0.0
09/08:30pm 31.4 26.3 0.7 14 15.0 SSW 17 20 9 11 1013.8 1013.3 0.0
09/08:00pm 33.5 28.1 1.3 13 16.1 SSW 19 26 10 14 1013.7 1013.2 0.0
09/07:30pm 35.3 29.2 0.4 11 17.4 SW 22 28 12 15 1013.5 1013.0 0.0
09/07:00pm 36.3 31.3 1.2 11 17.9 SSW 17 26 9 14 1013.3 1012.8 0.0
09/06:30pm 36.8 31.1 2.8 12 17.8 SW 22 33 12 18 1013.2 1012.7 0.0
09/06:00pm 37.2 33.4 1.8 11 18.3 WNW 11 20 6 11 1013.3 1012.8 0.0
09/05:30pm 36.8 32.8 2.8 12 17.8 SW 13 24 7 13 1013.5 1013.0 0.0
09/05:00pm 37.3 32.2 3.1 12 18.0 WSW 19 28 10 15 1013.8 1013.3 0.0
09/04:30pm 37.0 32.1 5.1 14 17.3 WSW 20 37 11 20 1014.1 1013.6 0.0
09/04:00pm 36.5 33.1 5.7 15 16.8 W 13 20 7 11 1014.5 1014.0 0.0
09/03:30pm 36.5 33.8 7.5 17 16.3 SW 11 26 6 14 1014.9 1014.4 0.0
09/03:00pm 36.5 33.8 7.5 17 16.3 WSW 11 30 6 16 1015.3 1014.8 0.0
09/02:30pm 35.5 32.9 7.6 18 15.6 WNW 11 22 6 12 1015.8 1015.4 0.0
09/02:00pm 35.1 33.1 7.2 18 15.5 NNW 7 17 4 9 1016.4 1016.0 0.0
09/01:30pm 34.4 32.1 7.5 19 15.0 NW 9 15 5 8 1016.7 1016.3 0.0
09/01:00pm 33.1 32.0 8.5 22 13.8 WSW 4 11 2 6 1017.1 1016.7 0.0
09/12:30pm 31.6 31.1 9.2 25 12.6 W 2 9 1 5 1017.6 1017.2 0.0
09/12:00pm 30.0 28.5 10.5 30 11.1 N 9 13 5 7 1018.1 1017.7 0.0
09/11:30am 28.7 27.8 10.8 33 10.2 N 6 13 3 7 1018.4 1018.0 0.0
09/11:00am 27.4 26.4 11.0 36 9.3 SE 7 13 4 7 1018.6 1018.2 0.0
09/10:30am 25.7 24.0 11.1 40 8.3 SSE 11 17 6 9 1018.7 1018.3 0.0
09/10:00am 24.6 22.5 11.2 43 7.5 SE 13 17 7 9 1018.8 1018.4 0.0
09/09:30am 22.8 20.3 11.2 48 6.5 SE 15 19 8 10 1018.8 1018.4 0.0
09/09:00am 21.1 18.6 10.9 52 5.6 SSE 15 20 8 11 1018.7 1018.3 0.0
09/08:30am 20.1 17.3 11.3 57 4.9 SSE 17 20 9 11 1018.5 1018.1 0.0
09/08:00am 18.9 16.4 11.2 61 4.2 S 15 20 8 11 1018.3 1017.9 0.0
09/07:30am 17.6 16.0 11.4 67 3.4 SSW 11 15 6 8 1018.1 1017.7 0.0
09/07:00am 16.5 15.0 10.6 68 3.1 SSW 9 11 5 6 1017.9 1017.5 0.0
09/06:30am 17.1 15.6 10.7 66 3.4 S 9 15 5 8 1017.8 1017.4 0.0
09/06:00am 17.6 15.7 10.5 63 3.8 S 11 15 6 8 1017.7 1017.3 0.0
09/05:30am 18.1 16.1 10.0 59 4.3 SSW 11 13 6 7 1017.4 1017.0 0.0
09/05:00am 19.1 16.7 10.1 56 4.8 S 13 17 7 9 1017.1 1016.7 0.0
09/04:30am 19.8 17.3 9.7 52 5.4 S 13 17 7 9 1016.9 1016.5 0.0
09/04:00am 20.2 18.0 9.5 50 5.7 SSE 11 15 6 8 1016.8 1016.4 0.0
09/03:30am 21.2 18.7 9.8 48 6.2 SSE 13 19 7 10 1016.6 1016.2 0.0
09/03:00am 22.1 19.6 9.6 45 6.8 SSE 13 17 7 9 1016.7 1016.3 0.0
09/02:30am 23.2 19.5 9.6 42 7.4 SSE 19 26 10 14 1016.8 1016.4 0.0
09/02:00am 23.9 20.2 10.2 42 7.6 S 20 30 11 16 1016.8 1016.4 0.0
09/01:30am 24.5 21.4 10.4 41 7.8 S 17 24 9 13 1016.7 1016.3 0.0
09/01:00am 26.0 21.2 10.2 37 8.8 SSE 26 35 14 19 1016.6 1016.2 0.0
09/12:30am 26.8 22.5 10.9 37 9.0 SSE 24 35 13 19 1016.5 1016.1 0.0
09/12:00am 27.9 23.7 12.3 38 9.1 SSE 26 37 14 20 1016.5 1016.1 0.0
 
Date/Time
EDT
Temp
°C
App
Temp
°C
Dew
Point
Rel
Hum
%
Delta-T
°C
Wind Press
QNH
hPa
Press
MSL
hPa
Rain
since 9 am
mm
Dir
 
Spd
km/h
Gust
km/h
Spd
kts
Gust
kts
08/11:30pm 28.7 24.7 10.4 32 10.4 SSE 22 32 12 17 1016.4 1016.0 0.0
08/11:00pm 29.0 26.1 9.7 30 10.8 SSE 15 20 8 11 1016.4 1016.0 0.0
08/10:30pm 29.3 26.2 8.9 28 11.3 SSE 15 20 8 11 1016.3 1015.9 0.0
08/10:00pm 30.3 27.3 9.2 27 11.8 SSE 15 22 8 12 1016.0 1015.6 0.0
08/09:30pm 31.1 28.1 9.3 26 12.3 S 15 20 8 11 1015.6 1015.1 0.0
08/09:00pm 31.9 29.2 8.8 24 13.0 S 13 17 7 9 1015.4 1014.9 0.0
08/08:30pm 33.0 30.2 8.5 22 13.8 SSE 13 17 7 9 1015.2 1014.7 0.0
08/08:00pm 34.4 31.0 7.5 19 15.0 S 15 22 8 12 1015.0 1014.5 0.0
08/07:30pm 35.2 30.8 6.5 17 15.8 SSE 19 24 10 13 1014.8 1014.3 0.0
08/07:00pm 36.6 32.2 6.7 16 16.6 SSE 19 26 10 14 1014.5 1014.0 0.0
08/06:30pm 36.9 31.4 6.0 15 17.0 S 24 32 13 17 1014.5 1014.0 0.0
08/06:00pm 36.6 32.6 6.7 16 16.6 SSW 17 32 9 17 1014.5 1014.0 0.0
08/05:30pm 35.6 31.1 6.8 17 16.0 S 20 32 11 17 1014.8 1014.3 0.0
08/05:00pm 36.6 33.2 5.8 15 16.9 SSE 13 26 7 14 1015.0 1014.5 0.0
08/04:30pm 37.1 34.0 7.1 16 16.8 SW 13 22 7 12 1015.2 1014.7 0.0
08/04:00pm 36.9 33.0 7.0 16 16.7 SSE 17 28 9 15 1015.6 1015.1 0.0
08/03:30pm 37.5 34.6 8.3 17 16.7 SSW 13 26 7 14 1015.9 1015.5 0.0
08/03:00pm 36.8 32.9 8.6 18 16.1 SSE 19 28 10 15 1016.2 1015.8 0.0
08/02:30pm 35.7 32.3 9.3 20 15.2 S 17 32 9 17 1016.6 1016.2 0.0
08/02:00pm 35.8 32.8 9.3 20 15.2 S 15 32 8 17 1017.0 1016.6 0.0
08/01:30pm 36.2 35.0 10.4 21 15.1 WSW 7 20 4 11 1017.2 1016.8 0.0
08/01:00pm 36.0 34.8 10.2 21 15.1 S 7 19 4 10 1017.6 1017.2 0.0
08/12:30pm 34.3 33.1 10.2 23 14.0 WSW 7 15 4 8 1017.8 1017.4 0.0
08/12:00pm 33.4 32.9 10.7 25 13.2 W 4 15 2 8 1018.1 1017.7 0.0
08/11:30am 33.7 33.2 10.9 25 13.3 NNW 4 9 2 5 1018.3 1017.9 0.0
08/11:00am 32.5 31.7 11.1 27 12.5 WNW 6 13 3 7 1018.4 1018.0 0.0
08/10:30am 31.6 31.8 11.9 30 11.6 NNE 2 11 1 6 1018.6 1018.2 0.0
08/10:00am 29.8 30.1 12.3 34 10.3 NW 2 9 1 5 1018.6 1018.2 0.0
08/09:30am 28.4 29.0 11.9 36 9.6 CALM 0 7 0 4 1018.6 1018.2 0.0

Other Formats:

Comma delimited format used in spreadsheet applications
http://www.bom.gov.au/fwo/IDN60801/IDN60801.94702.axf

JavaScript Object Notation format (JSON) in row-major order
http://www.bom.gov.au/fwo/IDN60801/IDN60801.94702.json